Terminal Aerodrome Forecast
Issued by NWS

Home | Current Version | Previous Version | Text Only | Print | Product List | Glossary On
Versions: 1 2 3 4 5 6 7 8 9 10 11 12
000
FTUS45 KRIW 272300
TAFLND
TAF
KLND 272321Z 2800/2824 24007KT P6SM SCT120 BKN250
     FM281000 VRB05KT P6SM SCT070 BKN090
     FM281500 VRB06KT P6SM VCSH BKN070
     FM282200 VRB06KT P6SM BKN070=

USA.gov is the U.S. government's official web portal to all federal, state and local government web resources and services.